Time;durP1;ratioP1;P1;durP2;ratioP2;P2;SDS_P1;SDS_P2;PMS_P1;PMS_P2;Temp;Humidity;BMP_temperature;BMP_pressure;BME280_temperature;BME280_humidity;BME280_pressure;Samples;Min_cycle;Max_cycle;Signal;HPM_P1;HPM_P2
2022/03/16 00:01:35;;;;;;;31.10;16.45;;;;;;;7.82;92.06;100183.09;5075907;28;20138;-89
2022/03/16 00:04:20;;;;;;;29.63;16.50;;;;;;;7.86;91.50;100191.78;5060276;28;20040;-88
2022/03/16 00:07:04;;;;;;;29.38;16.52;;;;;;;7.80;92.98;100192.72;5075808;28;20429;-89
2022/03/16 00:09:49;;;;;;;28.33;16.50;;;;;;;7.79;92.87;100195.31;5046856;28;20048;-89
2022/03/16 00:12:35;;;;;;;30.02;17.15;;;;;;;7.82;92.72;100188.31;5047003;28;20040;-89
2022/03/16 00:15:19;;;;;;;28.38;16.42;;;;;;;7.77;93.48;100191.84;5075740;28;20048;-89
2022/03/16 00:18:03;;;;;;;33.33;18.65;;;;;;;7.77;92.83;100187.50;5060960;28;20392;-89
2022/03/16 00:20:48;;;;;;;27.58;15.00;;;;;;;7.86;92.48;100184.81;5060802;28;20045;-88
2022/03/16 00:23:33;;;;;;;30.90;16.23;;;;;;;7.85;93.02;100187.44;5060813;28;20063;-89
2022/03/16 00:26:18;;;;;;;28.50;15.60;;;;;;;7.85;92.68;100177.88;5046744;28;20056;-89
2022/03/16 00:29:02;;;;;;;23.17;13.95;;;;;;;7.89;92.79;100192.59;5060910;28;20322;-89
2022/03/16 00:31:47;;;;;;;32.42;17.30;;;;;;;7.80;93.61;100181.38;5060696;28;20433;-89
2022/03/16 00:34:31;;;;;;;26.23;15.23;;;;;;;7.86;92.53;100183.94;5046674;28;20045;-89
2022/03/16 00:37:16;;;;;;;26.35;15.60;;;;;;;7.88;91.30;100175.25;5060720;28;20041;-89
2022/03/16 00:40:01;;;;;;;33.03;16.70;;;;;;;7.91;90.81;100172.59;5060734;28;20052;-88
2022/03/16 00:42:48;;;;;;;30.98;17.52;;;;;;;7.88;92.43;100171.78;5060965;28;20135;-89
2022/03/16 00:45:32;;;;;;;27.65;16.48;;;;;;;7.95;91.92;100183.88;5060592;28;20040;-89
2022/03/16 00:48:18;;;;;;;27.60;16.00;;;;;;;7.93;91.63;100176.09;5046861;28;20052;-89
2022/03/16 00:51:02;;;;;;;27.67;16.17;;;;;;;7.95;92.49;100183.88;5060607;28;20041;-89
2022/03/16 00:53:47;;;;;;;29.40;17.02;;;;;;;7.93;92.73;100173.47;5060437;28;20047;-88
2022/03/16 00:56:32;;;;;;;29.85;16.17;;;;;;;7.95;91.90;100174.31;5046406;28;20043;-88
2022/03/16 00:59:16;;;;;;;29.52;15.60;;;;;;;8.00;91.45;100181.25;5060560;28;20048;-89
2022/03/16 01:02:00;;;;;;;26.50;15.75;;;;;;;7.97;92.16;100177.78;5060569;28;20115;-89
2022/03/16 01:04:47;;;;;;;38.72;19.58;;;;;;;7.72;97.69;100179.72;5046830;28;20047;-89
2022/03/16 01:07:31;;;;;;;34.30;20.02;;;;;;;7.91;95.18;100172.59;5046369;28;20045;-89
2022/03/16 01:10:16;;;;;;;33.60;18.85;;;;;;;7.94;94.92;100177.81;5075192;28;20040;-89
2022/03/16 01:13:00;;;;;;;35.70;18.95;;;;;;;8.00;95.82;100183.84;5060554;28;20068;-89
2022/03/16 01:15:45;;;;;;;37.55;20.00;;;;;;;7.89;97.27;100174.34;5063306;28;20053;-89
2022/03/16 01:18:29;;;;;;;35.80;20.80;;;;;;;8.01;96.59;100183.81;5063904;28;20132;-89
2022/03/16 01:21:14;;;;;;;42.88;22.52;;;;;;;7.96;99.61;100178.66;5049883;28;20487;-89
2022/03/16 01:23:58;;;;;;;50.15;24.05;;;;;;;7.84;100.00;100189.19;5078510;28;20344;-88
2022/03/16 01:26:43;;;;;;;50.10;25.13;;;;;;;7.91;100.00;100184.78;5063754;28;20037;-90
2022/03/16 01:29:27;;;;;;;49.40;24.85;;;;;;;7.95;100.00;100187.34;5063625;28;20048;-90
2022/03/16 01:32:12;;;;;;;51.60;24.33;;;;;;;7.91;100.00;100183.03;5078577;28;20040;-90
2022/03/16 01:34:56;;;;;;;39.53;22.33;;;;;;;7.90;100.00;100175.25;5049652;28;20043;-91
2022/03/16 01:37:43;;;;;;;42.08;22.48;;;;;;;7.87;100.00;100170.06;5063544;28;20097;-90
2022/03/16 01:40:27;;;;;;;39.78;21.88;;;;;;;7.84;100.00;100165.72;5063444;28;20116;-90
2022/03/16 01:43:12;;;;;;;41.13;22.80;;;;;;;7.59;100.00;100159.81;5063533;28;20115;-90
2022/03/16 01:45:56;;;;;;;38.05;20.90;;;;;;;7.66;100.00;100166.72;5049551;28;20036;-90
2022/03/16 01:48:40;;;;;;;42.45;23.20;;;;;;;7.62;100.00;100158.94;5063407;28;20048;-90
2022/03/16 01:51:24;;;;;;;38.80;21.17;;;;;;;7.63;100.00;100161.53;5049237;28;20126;-90
2022/03/16 01:54:09;;;;;;;35.90;20.23;;;;;;;7.66;100.00;100165.84;5049268;28;20063;-90
2022/03/16 01:56:53;;;;;;;32.78;20.20;;;;;;;7.68;100.00;100158.91;5049329;28;20102;-89
2022/03/16 01:59:39;;;;;;;32.47;18.20;;;;;;;7.68;100.00;100166.72;5063190;28;20045;-89
2022/03/16 02:02:24;;;;;;;34.03;20.08;;;;;;;7.63;100.00;100164.13;5063133;28;20040;-90
2022/03/16 02:05:09;;;;;;;37.75;22.55;;;;;;;7.50;100.00;100168.56;5063243;28;20047;-90
2022/03/16 02:07:54;;;;;;;44.08;23.05;;;;;;;7.49;100.00;100163.38;5077816;28;20048;-90
2022/03/16 02:10:40;;;;;;;40.17;22.13;;;;;;;7.26;100.00;100153.09;5077679;28;20725;-89
2022/03/16 02:13:25;;;;;;;39.88;23.45;;;;;;;7.32;100.00;100165.22;5062839;28;20360;-90
2022/03/16 02:16:12;;;;;;;35.83;22.27;;;;;;;7.44;100.00;100171.22;5063049;28;20068;-90
2022/03/16 02:18:56;;;;;;;37.53;20.98;;;;;;;7.38;100.00;100158.25;5077610;28;20036;-90
2022/03/16 02:21:46;;;;;;;44.22;25.05;;;;;;;6.98;100.00;100168.00;5077682;28;20383;-90
2022/03/16 02:24:30;;;;;;;38.40;24.20;;;;;;;6.97;100.00;100176.69;5062419;28;20057;-90
2022/03/16 02:27:15;;;;;;;35.92;21.23;;;;;;;7.08;100.00;100184.44;5076639;28;20045;-90
2022/03/16 02:29:59;;;;;;;34.33;20.17;;;;;;;7.10;100.00;100169.69;5048460;28;20044;-90
2022/03/16 02:32:44;;;;;;;35.67;21.50;;;;;;;6.98;100.00;100181.03;5048326;28;20348;-90
2022/03/16 02:35:31;;;;;;;41.40;24.35;;;;;;;6.88;100.00;100174.13;5062528;28;20040;-90
2022/03/16 02:38:16;;;;;;;40.92;23.38;;;;;;;6.87;100.00;100175.88;5062481;28;20044;-90
2022/03/16 02:41:00;;;;;;;41.60;23.48;;;;;;;6.87;100.00;100188.88;5048561;28;20044;-90
2022/03/16 02:43:44;;;;;;;43.47;25.95;;;;;;;6.69;100.00;100181.13;5062302;28;20040;-90
2022/03/16 02:46:30;;;;;;;38.08;24.02;;;;;;;6.85;100.00;100184.56;5062256;28;20040;-90
2022/03/16 02:49:14;;;;;;;34.95;21.25;;;;;;;6.84;100.00;100177.63;5062075;28;20040;-90
2022/03/16 02:51:59;;;;;;;37.72;24.15;;;;;;;6.69;100.00;100181.13;5077158;28;20044;-90
2022/03/16 02:54:43;;;;;;;39.92;23.65;;;;;;;6.55;100.00;100175.97;5076906;28;20040;-89
2022/03/16 02:57:28;;;;;;;44.00;24.42;;;;;;;6.71;100.00;100184.63;5061986;28;20056;-89
2022/03/16 03:00:14;;;;;;;38.00;22.33;;;;;;;6.90;100.00;100188.88;5062055;28;20044;-89
2022/03/16 03:02:59;;;;;;;39.17;24.02;;;;;;;6.78;100.00;100191.53;5076844;28;20110;-89
2022/03/16 03:05:44;;;;;;;40.60;23.20;;;;;;;6.94;100.00;100190.59;5061954;28;20494;-88
2022/03/16 03:08:29;;;;;;;45.47;24.92;;;;;;;6.81;100.00;100188.03;5031259;28;20056;-89
2022/03/16 03:11:13;;;;;;;35.22;22.40;;;;;;;6.81;100.00;100170.69;5061870;28;20041;-89
2022/03/16 03:13:57;;;;;;;36.75;21.60;;;;;;;6.99;100.00;100195.81;5076514;28;20037;-89
2022/03/16 03:16:42;;;;;;;44.80;23.05;;;;;;;6.95;100.00;100201.88;5061782;28;20047;-89
2022/03/16 03:19:27;;;;;;;36.65;21.67;;;;;;;6.95;100.00;100207.06;5076424;28;20044;-89
2022/03/16 03:22:11;;;;;;;36.47;21.88;;;;;;;6.91;100.00;100203.63;5076678;28;20426;-89
2022/03/16 03:24:56;;;;;;;37.95;22.25;;;;;;;6.88;100.00;100206.22;5061673;28;20056;-89
2022/03/16 03:27:41;;;;;;;38.17;21.73;;;;;;;6.85;100.00;100205.38;5061608;28;20040;-89
2022/03/16 03:30:25;;;;;;;37.78;22.58;;;;;;;6.83;100.00;100205.41;5076402;28;20483;-89
2022/03/16 03:33:11;;;;;;;41.13;23.02;;;;;;;6.86;100.00;100210.59;5076465;28;20036;-89
2022/03/16 03:35:55;;;;;;;40.35;24.35;;;;;;;6.74;100.00;100208.03;5076582;28;20117;-88
2022/03/16 03:38:40;;;;;;;40.92;24.92;;;;;;;6.68;100.00;100213.25;5076261;28;20051;-88
2022/03/16 03:41:24;;;;;;;49.90;30.55;;;;;;;6.40;100.00;100215.03;5061572;28;20052;-88
2022/03/16 03:44:09;;;;;;;51.45;30.23;;;;;;;6.49;100.00;100205.47;5076473;28;20448;-88
2022/03/16 03:46:53;;;;;;;42.70;26.63;;;;;;;6.47;100.00;100199.44;5058460;28;20492;-89
2022/03/16 03:49:39;;;;;;;44.88;24.63;;;;;;;6.49;100.00;100210.69;5047158;28;20101;-89
2022/03/16 03:52:24;;;;;;;41.70;24.20;;;;;;;6.64;100.00;100211.53;5047146;28;20052;-88
2022/03/16 03:55:09;;;;;;;48.28;24.88;;;;;;;6.57;100.00;100215.03;5061205;28;20101;-88
2022/03/16 03:57:53;;;;;;;39.78;23.88;;;;;;;6.64;100.00;100216.75;5061423;28;20125;-89
2022/03/16 04:00:37;;;;;;;43.78;25.05;;;;;;;6.70;100.00;100222.81;5076111;28;20045;-89
2022/03/16 04:03:21;;;;;;;43.47;27.98;;;;;;;6.66;100.00;100223.69;5075891;28;20032;-88
2022/03/16 04:06:07;;;;;;;43.45;26.42;;;;;;;6.56;100.00;100214.13;5075970;28;20090;-89
2022/03/16 04:08:51;;;;;;;44.08;28.75;;;;;;;6.44;100.00;100225.47;5076059;28;20037;-88
2022/03/16 04:11:36;;;;;;;39.25;25.50;;;;;;;6.52;100.00;100223.69;5075938;28;20041;-88
2022/03/16 04:14:21;;;;;;;42.95;27.92;;;;;;;6.47;100.00;100229.78;5075886;28;20444;-89
2022/03/16 04:17:05;;;;;;;48.78;27.85;;;;;;;6.30;100.00;100235.00;5075727;28;20044;-89
2022/03/16 04:19:49;;;;;;;70.38;37.90;;;;;;;6.25;100.00;100234.16;5030363;28;20060;-88
2022/03/16 04:22:34;;;;;;;92.30;46.88;;;;;;;6.42;100.00;100235.00;5061079;28;20385;-88
2022/03/16 04:25:18;;;;;;;78.00;40.33;;;;;;;6.36;100.00;100236.72;5060994;28;20053;-88
2022/03/16 04:28:03;;;;;;;75.43;38.03;;;;;;;6.32;100.00;100236.72;5075772;28;20055;-88
2022/03/16 04:30:48;;;;;;;74.95;40.47;;;;;;;6.28;100.00;100244.56;5060908;28;20354;-89
2022/03/16 04:33:33;;;;;;;63.85;37.58;;;;;;;6.35;100.00;100253.22;5060934;28;20141;-88
2022/03/16 04:36:17;;;;;;;62.47;35.10;;;;;;;6.29;100.00;100251.47;5060943;28;20075;-89
2022/03/16 04:39:02;;;;;;;52.53;30.30;;;;;;;6.26;100.00;100239.34;5046884;28;20041;-88
2022/03/16 04:41:47;;;;;;;47.42;28.30;;;;;;;6.20;100.00;100248.88;5046843;28;20106;-89
2022/03/16 04:44:32;;;;;;;47.10;28.10;;;;;;;6.24;100.00;100246.31;5060625;28;20322;-88
2022/03/16 04:47:16;;;;;;;47.17;29.20;;;;;;;6.17;100.00;100254.09;5046807;28;20049;-89
2022/03/16 04:50:01;;;;;;;47.55;28.85;;;;;;;6.06;100.00;100256.69;5062673;28;20044;-88
2022/03/16 04:52:47;;;;;;;47.95;29.75;;;;;;;6.12;100.00;100261.03;5050309;28;20040;-89
2022/03/16 04:55:35;;;;;;;48.80;30.55;;;;;;;6.05;100.00;100268.84;5079063;28;20040;-89
2022/03/16 04:58:19;;;;;;;45.50;28.20;;;;;;;6.21;100.00;100274.91;5064320;28;20119;-88
2022/03/16 05:01:04;;;;;;;41.85;28.17;;;;;;;6.14;100.00;100275.75;5079080;28;20048;-88
2022/03/16 05:03:48;;;;;;;45.20;27.40;;;;;;;6.18;100.00;100279.25;5079004;28;20345;-89
2022/03/16 05:06:32;;;;;;;49.40;27.70;;;;;;;6.16;100.00;100283.56;5050153;28;20040;-89
2022/03/16 05:09:17;;;;;;;45.72;29.08;;;;;;;6.18;100.00;100276.66;5049769;28;20044;-89
2022/03/16 05:12:01;;;;;;;46.88;29.02;;;;;;;6.26;100.00;100283.56;5078604;28;20049;-88
2022/03/16 05:14:46;;;;;;;42.33;28.45;;;;;;;6.26;100.00;100287.91;5063340;28;20056;-89
2022/03/16 05:17:31;;;;;;;51.92;30.55;;;;;;;6.11;100.00;100290.50;5079487;28;20101;-89
2022/03/16 05:20:16;;;;;;;47.97;29.50;;;;;;;6.16;100.00;100294.84;5064093;28;20087;-89
2022/03/16 05:23:00;;;;;;;44.63;26.77;;;;;;;6.13;100.00;100297.44;5064278;28;20041;-89
2022/03/16 05:25:45;;;;;;;47.45;28.85;;;;;;;6.15;100.00;100295.72;5063856;28;20139;-89
2022/03/16 05:28:30;;;;;;;49.83;29.33;;;;;;;6.07;100.00;100300.88;5079318;28;20059;-89
2022/03/16 05:31:14;;;;;;;46.15;27.88;;;;;;;6.18;100.00;100300.91;5063954;28;20037;-89
2022/03/16 05:33:59;;;;;;;50.42;30.92;;;;;;;6.12;100.00;100302.66;5064462;28;20044;-89
2022/03/16 05:36:43;;;;;;;49.20;30.02;;;;;;;6.23;100.00;100308.72;5063872;28;20112;-89
2022/03/16 05:39:28;;;;;;;47.33;29.45;;;;;;;6.13;100.00;100315.63;5063744;28;20111;-89
2022/03/16 05:42:12;;;;;;;50.72;30.15;;;;;;;6.26;100.00;100325.19;5079139;28;20041;-89
2022/03/16 05:44:57;;;;;;;53.70;31.65;;;;;;;6.22;100.00;100327.81;5064188;28;20044;-89
2022/03/16 05:47:41;;;;;;;55.00;34.83;;;;;;;6.09;100.00;100326.91;5050093;28;20040;-89
2022/03/16 05:50:29;;;;;;;48.40;30.15;;;;;;;6.25;100.00;100322.59;5063596;28;20055;-89
2022/03/16 05:53:14;;;;;;;61.60;38.22;;;;;;;6.15;100.00;100326.06;5063964;28;20043;-89
2022/03/16 05:55:59;;;;;;;67.00;40.25;;;;;;;6.30;100.00;100339.06;5063710;28;20048;-89
2022/03/16 05:58:43;;;;;;;53.97;35.30;;;;;;;6.39;100.00;100343.41;5078807;28;20048;-89
2022/03/16 06:01:28;;;;;;;70.10;38.58;;;;;;;6.29;100.00;100345.13;5076995;28;20041;-89
2022/03/16 06:04:12;;;;;;;72.93;43.90;;;;;;;6.31;100.00;100352.09;5063324;28;20040;-88
2022/03/16 06:06:57;;;;;;;51.42;35.85;;;;;;;6.43;100.00;100353.81;5049478;28;20048;-89
2022/03/16 06:09:41;;;;;;;70.57;39.70;;;;;;;6.38;100.00;100355.56;5078066;28;20451;-89
2022/03/16 06:12:26;;;;;;;60.42;36.80;;;;;;;6.33;100.00;100357.28;5077976;28;20051;-89
2022/03/16 06:15:10;;;;;;;67.00;37.70;;;;;;;6.46;100.00;100361.63;5063229;28;20364;-88
2022/03/16 06:17:57;;;;;;;55.47;35.67;;;;;;;6.45;100.00;100370.31;5077935;28;20037;-89
2022/03/16 06:20:41;;;;;;;63.00;39.53;;;;;;;6.37;100.00;100366.84;5061737;28;20044;-88
2022/03/16 06:23:25;;;;;;;60.55;39.17;;;;;;;6.40;100.00;100379.88;5075889;28;20053;-88
2022/03/16 06:26:09;;;;;;;72.05;43.90;;;;;;;6.41;100.00;100372.91;5075792;28;20056;-88
2022/03/16 06:28:54;;;;;;;60.08;39.25;;;;;;;6.57;100.00;100382.47;5047083;28;20037;-88
2022/03/16 06:31:38;;;;;;;71.85;43.83;;;;;;;6.64;100.00;100385.94;5061335;28;20440;-88
2022/03/16 06:34:22;;;;;;;67.43;40.40;;;;;;;6.69;100.00;100392.00;5075811;28;20052;-88
2022/03/16 06:37:06;;;;;;;63.92;41.03;;;;;;;6.76;100.00;100394.63;5075795;28;20036;-87
2022/03/16 06:39:51;;;;;;;65.60;39.50;;;;;;;6.88;100.00;100398.94;5060921;28;20119;-88
2022/03/16 06:42:54;;;;;;;66.07;41.67;;;;;;;6.92;100.00;100394.59;5075819;28;20105;-87
2022/03/16 06:45:38;;;;;;;72.10;44.60;;;;;;;6.98;100.00;100398.06;5075857;28;20059;-87
2022/03/16 06:48:23;;;;;;;76.43;41.25;;;;;;;7.19;100.00;100399.78;5047786;28;20041;-88
2022/03/16 06:51:09;;;;;;;60.72;37.95;;;;;;;7.28;100.00;100401.50;5077228;28;20067;-88
2022/03/16 06:53:53;;;;;;;66.45;38.05;;;;;;;7.44;100.00;100398.00;5062310;28;20399;-88
2022/03/16 06:56:38;;;;;;;55.67;36.17;;;;;;;7.47;100.00;100402.31;5062246;28;20044;-88
2022/03/16 06:59:22;;;;;;;60.80;37.13;;;;;;;7.50;100.00;100404.91;5048220;28;20101;-89
2022/03/16 07:02:07;;;;;;;54.67;35.85;;;;;;;7.80;100.00;100411.75;5077169;28;20047;-90
2022/03/16 07:04:51;;;;;;;57.88;37.47;;;;;;;7.96;100.00;100409.94;5077485;28;20106;-89
2022/03/16 07:07:35;;;;;;;60.40;37.35;;;;;;;8.15;100.00;100410.72;5062045;28;20045;-89
2022/03/16 07:10:20;;;;;;;54.63;35.97;;;;;;;8.27;100.00;100425.44;5062215;28;20041;-89
2022/03/16 07:13:04;;;;;;;78.55;41.58;;;;;;;8.45;100.00;100429.69;5069118;28;20036;-89
2022/03/16 07:15:49;;;;;;;58.78;34.85;;;;;;;8.64;100.00;100416.53;5068412;28;20045;-88
2022/03/16 07:18:33;;;;;;;54.80;35.55;;;;;;;8.83;100.00;100422.44;5061417;28;20051;-88
2022/03/16 07:21:18;;;;;;;54.00;34.75;;;;;;;8.84;100.00;100421.59;5047855;28;20049;-89
2022/03/16 07:24:02;;;;;;;67.65;36.17;;;;;;;8.93;100.00;100425.00;5076249;28;20037;-87
2022/03/16 07:26:47;;;;;;;62.83;37.40;;;;;;;9.08;100.00;100427.47;5048221;28;20041;-88
2022/03/16 07:29:31;;;;;;;61.13;37.80;;;;;;;9.23;100.00;100429.94;5062325;28;20063;-79
2022/03/16 07:32:15;;;;;;;51.90;34.92;;;;;;;9.36;100.00;100430.69;5076437;28;20105;-79
2022/03/16 07:35:00;;;;;;;52.80;32.80;;;;;;;9.67;100.00;100444.28;5061856;28;20048;-78
2022/03/16 07:37:44;;;;;;;53.40;33.00;;;;;;;9.80;100.00;100435.41;5076526;28;20044;-79
2022/03/16 07:40:31;;;;;;;45.22;28.92;;;;;;;10.14;100.00;100429.78;5076345;28;20052;-78
2022/03/16 07:43:15;;;;;;;41.65;31.05;;;;;;;10.39;100.00;100435.53;5061877;28;20495;-78
2022/03/16 07:46:00;;;;;;;38.38;27.70;;;;;;;10.26;97.60;100432.22;5076763;28;20105;-78
2022/03/16 07:48:45;;;;;;;45.97;29.75;;;;;;;10.21;98.69;100446.25;5061530;28;20041;-79
2022/03/16 07:51:30;;;;;;;39.78;27.55;;;;;;;10.54;98.54;100455.44;5061383;28;20341;-78
2022/03/16 07:54:15;;;;;;;37.97;25.98;;;;;;;10.45;94.66;100450.31;5061618;28;20123;-78
2022/03/16 07:56:59;;;;;;;36.80;26.05;;;;;;;10.47;93.28;100451.16;5061456;28;20417;-79
2022/03/16 07:59:44;;;;;;;40.22;26.92;;;;;;;10.77;91.36;100448.06;5061255;28;20049;-78
2022/03/16 08:02:29;;;;;;;44.22;28.58;;;;;;;11.04;90.24;100453.75;5076653;28;20106;-79
2022/03/16 08:05:15;;;;;;;39.28;28.10;;;;;;;10.70;88.76;100451.69;5076605;28;20040;-78
2022/03/16 08:07:59;;;;;;;42.63;29.10;;;;;;;11.02;88.30;100460.78;5061216;28;20037;-78
2022/03/16 08:10:44;;;;;;;37.55;27.95;;;;;;;11.07;88.33;100465.94;5061201;28;20048;-78
2022/03/16 08:13:29;;;;;;;42.85;31.00;;;;;;;10.68;85.83;100477.03;5061611;28;20053;-79
2022/03/16 08:16:13;;;;;;;49.75;31.02;;;;;;;10.80;88.96;100462.03;5061054;28;20041;-79
2022/03/16 08:18:57;;;;;;;40.30;29.98;;;;;;;11.00;85.03;100473.06;5075836;28;20048;-79
2022/03/16 08:21:41;;;;;;;45.17;29.92;;;;;;;10.90;82.40;100476.72;5060991;28;20132;-79
2022/03/16 08:24:25;;;;;;;37.20;27.10;;;;;;;11.00;84.19;100473.91;5076669;28;20049;-80
2022/03/16 08:27:09;;;;;;;41.00;29.83;;;;;;;11.19;81.95;100471.00;5050893;28;20344;-79
2022/03/16 08:29:54;;;;;;;36.92;27.40;;;;;;;11.50;82.33;100475.69;5064951;28;20040;-79
2022/03/16 08:32:40;;;;;;;37.28;27.30;;;;;;;11.62;80.73;100475.47;5065288;28;20048;-79
2022/03/16 08:35:25;;;;;;;37.70;27.88;;;;;;;11.66;80.90;100478.00;5051543;28;20044;-80
2022/03/16 08:38:09;;;;;;;38.33;29.02;;;;;;;11.78;79.32;100491.78;5051360;28;20040;-80
2022/03/16 08:40:53;;;;;;;42.47;29.30;;;;;;;11.80;78.10;100490.88;5051331;28;20079;-79
2022/03/16 08:43:38;;;;;;;41.22;30.13;;;;;;;11.49;79.88;100487.94;5079626;28;20036;-80
2022/03/16 08:46:23;;;;;;;41.83;28.38;;;;;;;11.54;81.89;100495.75;5064755;28;20040;-80
2022/03/16 08:49:07;;;;;;;46.17;29.77;;;;;;;11.89;80.88;100503.84;5079618;28;20037;-80
2022/03/16 08:51:51;;;;;;;35.08;26.38;;;;;;;12.23;79.88;100497.91;5065246;28;20414;-80
2022/03/16 08:54:36;;;;;;;41.67;28.85;;;;;;;11.87;77.30;100504.78;5050715;28;20048;-80
2022/03/16 08:57:22;;;;;;;37.17;27.10;;;;;;;11.59;80.14;100512.25;5051048;28;20090;-80
2022/03/16 09:00:07;;;;;;;41.40;28.60;;;;;;;11.72;79.44;100500.63;5050660;28;20123;-79
2022/03/16 09:02:52;;;;;;;41.83;28.75;;;;;;;11.88;78.64;100515.22;5064892;28;20044;-80
2022/03/16 09:05:37;;;;;;;37.50;28.55;;;;;;;11.88;78.36;100515.22;5064603;28;20092;-80
2022/03/16 09:08:21;;;;;;;37.72;26.55;;;;;;;12.13;77.47;100513.00;5064364;28;20055;-80
2022/03/16 09:11:05;;;;;;;42.60;29.13;;;;;;;12.12;75.54;100519.16;5047373;28;20044;-79
2022/03/16 09:13:50;;;;;;;42.03;29.70;;;;;;;12.15;76.95;100529.59;5050819;28;20044;-79
2022/03/16 09:16:34;;;;;;;36.85;29.00;;;;;;;11.91;75.67;100530.06;5079225;28;20421;-80
2022/03/16 09:19:22;;;;;;;38.97;27.33;;;;;;;11.93;75.70;100525.66;5078966;28;20058;-78
2022/03/16 09:22:06;;;;;;;38.88;27.85;;;;;;;11.75;77.06;100531.22;5079208;28;20076;-79
2022/03/16 09:24:51;;;;;;;42.33;30.45;;;;;;;11.73;76.03;100532.97;5064115;28;20059;-78
2022/03/16 09:27:35;;;;;;;32.50;25.20;;;;;;;11.87;76.74;100531.03;5064563;28;20062;-79
2022/03/16 09:30:23;;;;;;;32.53;24.48;;;;;;;12.00;74.46;100539.53;5079244;28;20047;-79
2022/03/16 09:33:08;;;;;;;34.85;24.00;;;;;;;12.04;73.13;100536.81;5063990;28;20040;-79
2022/03/16 09:35:52;;;;;;;39.38;25.35;;;;;;;11.90;74.47;100547.56;5049654;28;20044;-79
2022/03/16 09:38:37;;;;;;;36.25;24.73;;;;;;;11.76;75.06;100544.28;5050278;28;20044;-80
2022/03/16 09:41:22;;;;;;;31.30;23.27;;;;;;;12.27;75.73;100543.34;5063872;28;20090;-79
2022/03/16 09:44:06;;;;;;;45.22;25.90;;;;;;;12.44;71.79;100553.50;5050141;28;20064;-79
2022/03/16 09:46:52;;;;;;;32.13;24.42;;;;;;;12.70;71.50;100538.03;5064237;28;20040;-78
2022/03/16 09:49:38;;;;;;;29.05;23.08;;;;;;;12.38;70.69;100546.63;5063618;28;20044;-86
2022/03/16 09:52:23;;;;;;;31.55;23.75;;;;;;;12.27;72.41;100546.84;5064042;28;20047;-87
2022/03/16 09:55:08;;;;;;;31.60;23.65;;;;;;;12.45;71.75;100547.38;5063910;28;20074;-87
2022/03/16 09:57:53;;;;;;;31.90;23.50;;;;;;;12.50;70.60;100556.88;5064131;28;20044;-87
2022/03/16 10:00:38;;;;;;;29.80;24.65;;;;;;;12.49;69.03;100552.53;5078480;28;20048;-88
2022/03/16 10:03:28;;;;;;;27.85;21.75;;;;;;;12.83;69.58;100557.91;5078940;28;20040;-87
2022/03/16 10:06:14;;;;;;;31.88;23.30;;;;;;;13.06;68.15;100559.13;5079066;28;20405;-87
2022/03/16 10:15:31;;;;;;;29.95;22.40;;;;;;;12.88;67.12;100565.69;5078478;28;20090;-84
2022/03/16 10:18:21;;;;;;;43.60;25.38;;;;;;;13.17;66.69;100577.31;5078748;28;20040;-89
2022/03/16 10:21:05;;;;;;;30.92;23.17;;;;;;;12.95;64.94;100575.19;5063907;28;20040;-86
2022/03/16 10:23:50;;;;;;;32.40;24.10;;;;;;;13.01;65.76;100576.81;5079164;28;20048;-86
2022/03/16 10:26:35;;;;;;;28.13;19.35;;;;;;;13.25;65.03;100580.66;5064821;28;20044;-85
2022/03/16 10:29:22;;;;;;;26.55;21.40;;;;;;;13.22;64.25;100580.69;5078650;28;20037;-88
2022/03/16 10:32:07;;;;;;;29.50;22.67;;;;;;;13.23;65.46;100591.19;5079520;28;20074;-88
2022/03/16 10:34:53;;;;;;;46.38;38.33;;;;;;;13.37;65.46;100596.16;5061123;28;20048;-88
2022/03/16 10:37:38;;;;;;;29.38;21.65;;;;;;;13.78;62.85;100586.38;5062501;28;20045;-91
2022/03/16 10:40:26;;;;;;;31.88;28.27;;;;;;;13.37;62.45;100585.63;5062623;28;20048;-92
2022/03/16 10:46:34;;;;;;;189.27;163.63;;;;;;;13.60;64.47;100592.94;5077181;28;20048;-86
2022/03/16 10:49:22;;;;;;;135.50;120.80;;;;;;;13.72;61.88;100590.00;5060999;28;20067;-81
2022/03/16 10:52:14;;;;;;;128.07;114.57;;;;;;;13.79;61.82;100591.59;5075422;28;20119;-91
2022/03/16 10:55:02;;;;;;;46.63;38.70;;;;;;;13.64;62.94;100588.47;5046764;28;20051;-89
2022/03/16 10:57:49;;;;;;;255.68;226.75;;;;;;;13.37;63.19;100595.28;5061310;28;20041;-90
2022/03/16 11:00:35;;;;;;;215.40;188.93;;;;;;;13.27;63.20;100603.41;5061851;28;20157;-90
2022/03/16 11:03:22;;;;;;;45.05;36.35;;;;;;;13.27;61.64;100610.44;5078216;28;20096;-89
2022/03/16 11:06:08;;;;;;;56.15;49.58;;;;;;;13.56;61.07;100601.84;5061526;28;20044;-90
2022/03/16 11:08:54;;;;;;;41.05;36.50;;;;;;;13.34;62.18;100609.38;5048035;28;20040;-90
2022/03/16 11:14:44;;;;;;;29.30;22.23;;;;;;;13.50;62.21;100615.13;5076713;28;20036;-90
2022/03/16 11:17:30;;;;;;;28.65;22.73;;;;;;;14.02;61.30;100612.03;5062016;28;20037;-91
2022/03/16 11:20:15;;;;;;;34.15;25.85;;;;;;;14.18;61.60;100611.63;5062247;28;20129;-90
2022/03/16 11:26:21;;;;;;;47.40;35.17;;;;;;;14.29;58.40;100614.81;5076403;28;20076;-89
2022/03/16 11:29:34;;;;;;;126.53;97.05;;;;;;;13.92;60.08;100621.09;5076552;28;20450;-88
2022/03/16 11:32:20;;;;;;;46.90;33.75;;;;;;;13.82;59.94;100624.88;5061708;28;20075;-90
2022/03/16 11:35:13;;;;;;;126.65;83.43;;;;;;;13.86;61.17;100617.75;5062290;28;20040;-91
2022/03/16 11:38:11;;;;;;;;;;;;;;;13.68;62.10;100614.69;5048019;28;20040;-88
2022/03/16 11:40:56;;;;;;;106.90;76.85;;;;;;;13.72;61.69;100621.59;5047689;28;19946;-91
2022/03/16 11:43:40;;;;;;;88.90;64.85;;;;;;;13.85;61.39;100613.41;5061784;28;20044;-88
2022/03/16 11:46:30;;;;;;;49.75;38.03;;;;;;;13.18;61.76;100619.34;5076568;28;20040;-86
2022/03/16 11:49:28;;;;;;;41.80;30.20;;;;;;;13.49;60.13;100623.94;5047661;28;20432;-86
2022/03/16 11:52:12;;;;;;;62.10;45.97;;;;;;;13.10;59.88;100630.06;5061355;28;20041;-88
2022/03/16 11:54:56;;;;;;;119.65;78.25;;;;;;;13.40;59.33;100622.38;5061629;28;20078;-85
2022/03/16 11:57:51;;;;;;;42.15;30.65;;;;;;;13.97;60.52;100621.84;5061947;28;20048;-87
2022/03/16 12:00:38;;;;;;;44.22;30.25;;;;;;;14.00;58.92;100615.63;5075529;28;20131;-87
2022/03/16 12:03:24;;;;;;;39.58;29.83;;;;;;;14.16;57.74;100610.81;5047833;28;20041;-86
2022/03/16 12:06:08;;;;;;;57.65;42.33;;;;;;;13.70;58.63;100619.91;5061454;28;20056;-87
2022/03/16 12:08:58;;;;;;;45.95;31.80;;;;;;;13.74;57.61;100625.03;5061729;28;20047;-87
2022/03/16 12:15:29;;;;;;;39.80;28.92;;;;;;;14.02;57.30;100626.97;5076338;28;20044;-87
2022/03/16 12:18:16;;;;;;;48.80;34.20;;;;;;;13.98;56.09;100628.84;5061702;28;20054;-91
2022/03/16 12:21:07;;;;;;;41.05;29.42;;;;;;;14.31;56.91;100630.63;5063301;28;20044;-88
2022/03/16 12:23:58;;;;;;;43.70;31.77;;;;;;;14.37;55.52;100641.84;5076443;28;20041;-89
2022/03/16 12:28:55;;;;;;;41.10;28.20;;;;;;;14.80;55.31;100638.03;5061356;28;20036;-88
2022/03/16 12:29:48;;;;;;;38.88;28.95;;;;;;;14.61;54.86;100636.81;5076036;28;20051;-89
2022/03/16 12:32:36;;;;;;;38.92;28.88;;;;;;;14.90;55.15;100636.84;5076055;28;20047;-88
2022/03/16 12:35:21;;;;;;;46.47;31.20;;;;;;;14.56;53.57;100633.44;5075714;28;20044;-87
2022/03/16 12:38:09;;;;;;;43.85;32.35;;;;;;;14.68;53.44;100628.69;5075718;28;20044;-88
2022/03/16 12:43:59;;;;;;;44.13;32.40;;;;;;;14.95;53.91;100632.31;5060771;28;20051;-90
2022/03/16 12:46:49;;;;;;;62.00;34.53;;;;;;;15.04;51.83;100636.41;5075600;28;20384;-90
2022/03/16 12:49:42;;;;;;;42.17;32.17;;;;;;;14.56;51.29;100631.69;5060652;28;20326;-87
2022/03/16 12:52:27;;;;;;;37.63;28.88;;;;;;;14.31;53.40;100635.88;5075620;28;20041;-88
2022/03/16 12:55:15;;;;;;;50.08;36.72;;;;;;;14.41;52.20;100632.94;5075487;28;20456;-87